Time;durP1;ratioP1;P1;durP2;ratioP2;P2;SDS_P1;SDS_P2;PMS_P1;PMS_P2;Temp;Humidity;BMP_temperature;BMP_pressure;BME280_temperature;BME280_humidity;BME280_pressure;Samples;Min_cycle;Max_cycle;Signal;HPM_P1;HPM_P2
2023/03/26 00:01:00;;;;;;;0.90;0.90;;;;;;;11.40;100.00;96190.44;5006667;28;20061;-62
2023/03/26 00:03:28;;;;;;;0.90;0.90;;;;;;;11.06;100.00;96138.53;5006930;28;20077;-57
2023/03/26 00:06:02;;;;;;;0.90;0.90;;;;;;;10.96;100.00;96131.00;5007302;28;20468;-62
2023/03/26 00:08:29;;;;;;;0.80;0.80;;;;;;;11.25;100.00;96199.13;4972953;28;20211;-62
2023/03/26 00:10:56;;;;;;;0.90;0.90;;;;;;;11.15;100.00;96199.91;5006932;28;20084;-62
2023/03/26 00:13:25;;;;;;;0.90;0.90;;;;;;;11.17;100.00;96203.09;5006765;28;20073;-57
2023/03/26 00:15:52;;;;;;;0.90;0.90;;;;;;;10.90;100.00;96149.22;5006280;28;20057;-56
2023/03/26 00:18:21;;;;;;;0.80;0.80;;;;;;;11.17;100.00;96203.09;5005447;28;20093;-56
2023/03/26 00:20:47;;;;;;;0.90;0.90;;;;;;;11.09;100.00;96201.50;5006848;28;20057;-56
2023/03/26 00:23:14;;;;;;;0.80;0.80;;;;;;;11.00;100.00;96203.88;5006754;28;20077;-58
2023/03/26 00:25:42;;;;;;;0.80;0.80;;;;;;;10.98;100.00;96195.16;5005419;28;20108;-56
2023/03/26 00:28:09;;;;;;;0.90;0.90;;;;;;;10.99;100.00;96199.50;5006892;28;20556;-62
2023/03/26 00:30:36;;;;;;;0.80;0.80;;;;;;;10.96;100.00;96197.50;5006854;28;20061;-56
2023/03/26 00:33:02;;;;;;;0.90;0.90;;;;;;;10.89;100.00;96194.75;5004603;28;20050;-57
2023/03/26 00:35:29;;;;;;;0.80;0.80;;;;;;;10.75;100.00;96195.47;5004867;28;20073;-58
2023/03/26 00:37:57;;;;;;;0.80;0.80;;;;;;;10.40;100.00;96132.50;5005242;28;20058;-56
2023/03/26 00:40:24;;;;;;;0.82;0.82;;;;;;;10.84;100.00;96214.50;5006488;28;20046;-57
2023/03/26 00:42:50;;;;;;;0.80;0.80;;;;;;;10.39;100.00;96144.75;5006636;28;20053;-62
2023/03/26 00:45:20;;;;;;;0.90;0.90;;;;;;;10.93;100.00;96203.84;5006322;28;20073;-57
2023/03/26 00:47:47;;;;;;;0.90;0.90;;;;;;;10.99;100.00;96207.81;5006327;28;20502;-62
2023/03/26 00:50:16;;;;;;;0.80;0.80;;;;;;;10.72;100.00;96165.03;5006248;28;20068;-63
2023/03/26 00:52:45;;;;;;;0.90;0.90;;;;;;;10.68;100.00;96160.25;5005926;28;20049;-62
2023/03/26 00:55:12;;;;;;;0.90;0.90;;;;;;;10.73;100.00;96155.53;5004856;28;20456;-62
2023/03/26 00:57:39;;;;;;;0.80;0.80;;;;;;;10.83;100.00;96166.63;5006213;28;20116;-62
2023/03/26 01:00:15;;;;;;;0.90;0.90;;;;;;;10.93;100.00;96198.28;5006010;28;20046;-56
2023/03/26 01:02:43;;;;;;;0.85;0.85;;;;;;;11.06;100.00;96235.53;5006369;28;20128;-62
2023/03/26 01:05:41;;;;;;;0.85;0.85;;;;;;;11.10;100.00;96247.41;5005671;28;20119;-62
2023/03/26 01:08:42;;;;;;;0.85;0.85;;;;;;;11.06;100.00;96235.53;5006302;28;20485;-56
2023/03/26 01:11:13;;;;;;;0.90;0.90;;;;;;;11.01;100.00;96222.06;4994481;28;20058;-62
2023/03/26 01:13:49;;;;;;;0.90;0.90;;;;;;;11.08;100.00;96222.09;4986465;28;20050;-62
2023/03/26 01:16:46;;;;;;;0.90;0.90;;;;;;;10.93;100.00;96228.78;4985628;28;20057;-56
2023/03/26 01:19:20;;;;;;;0.80;0.80;;;;;;;10.67;100.00;96191.91;4986297;28;20050;-62
2023/03/26 01:21:46;;;;;;;0.90;0.90;;;;;;;10.54;100.00;96182.38;4984680;28;20081;-62
2023/03/26 01:24:13;;;;;;;0.90;0.90;;;;;;;10.76;100.00;96215.69;4985740;28;20047;-56
2023/03/26 01:26:39;;;;;;;0.80;0.80;;;;;;;10.87;100.00;96238.66;4986168;28;20081;-62
2023/03/26 01:29:18;;;;;;;0.80;0.80;;;;;;;10.89;100.00;96241.84;4985449;28;20054;-62
2023/03/26 01:32:00;;;;;;;0.93;0.93;;;;;;;10.91;100.00;96234.72;4986093;28;20069;-62
2023/03/26 01:34:48;;;;;;;0.80;0.80;;;;;;;10.86;100.00;96226.00;4985876;28;20081;-61
2023/03/26 01:37:21;;;;;;;0.80;0.80;;;;;;;10.96;100.00;96214.13;4984662;28;20141;-62
2023/03/26 01:39:56;;;;;;;0.90;0.90;;;;;;;10.40;100.00;96143.56;4985597;28;20145;-61
2023/03/26 01:42:36;;;;;;;0.80;0.80;;;;;;;10.80;100.00;96188.75;4986215;28;20055;-58
2023/03/26 01:45:15;;;;;;;0.80;0.80;;;;;;;10.57;100.00;96173.28;4985718;28;20141;-62
2023/03/26 01:47:43;;;;;;;0.90;0.90;;;;;;;10.49;100.00;96180.00;4985760;28;20049;-62
2023/03/26 01:50:09;;;;;;;0.80;0.80;;;;;;;10.40;100.00;96165.72;4985668;28;20058;-62
2023/03/26 01:52:37;;;;;;;0.85;0.85;;;;;;;10.87;100.00;96244.19;4985989;28;20054;-56
2023/03/26 01:55:05;;;;;;;0.90;0.90;;;;;;;10.91;100.00;96218.09;4985586;28;20082;-62
2023/03/26 01:58:02;;;;;;;0.90;0.90;;;;;;;11.04;100.00;96237.91;4985769;28;20469;-63
2023/03/26 02:00:38;;;;;;;0.90;0.90;;;;;;;10.49;100.00;96152.31;4985199;28;20054;-57
2023/03/26 02:03:50;;;;;;;0.90;0.90;;;;;;;10.99;100.00;96229.97;4985479;28;20791;-57
2023/03/26 02:06:29;;;;;;;0.90;0.90;;;;;;;10.33;100.00;96237.69;4963452;28;20086;-58
2023/03/26 02:08:59;;;;;;;0.80;0.80;;;;;;;10.24;100.00;96233.66;4963088;28;20062;-58
2023/03/26 02:11:26;;;;;;;0.80;0.80;;;;;;;10.42;100.00;96251.94;4969083;28;20136;-63
2023/03/26 02:14:04;;;;;;;0.90;0.90;;;;;;;10.53;100.00;96235.38;4985046;28;20133;-56
2023/03/26 02:16:30;;;;;;;0.80;0.80;;;;;;;10.56;100.00;96232.63;4985543;28;20230;-63
2023/03/26 02:18:58;;;;;;;0.90;0.90;;;;;;;10.49;100.00;96210.47;4985149;28;20046;-62
2023/03/26 02:21:26;;;;;;;0.80;0.80;;;;;;;10.91;100.00;96272.72;4984125;28;20050;-63
2023/03/26 02:24:01;;;;;;;0.85;0.85;;;;;;;10.97;100.00;96276.69;4985303;28;20057;-63
2023/03/26 02:26:31;;;;;;;0.90;0.90;;;;;;;10.92;100.00;96283.41;4985578;28;20054;-63
2023/03/26 02:28:58;;;;;;;0.80;0.80;;;;;;;10.97;100.00;96282.25;4983499;28;20053;-60
2023/03/26 02:31:25;;;;;;;0.90;0.90;;;;;;;10.24;100.00;96233.66;4984513;28;20580;-58
2023/03/26 02:33:54;;;;;;;0.95;0.95;;;;;;;10.24;100.00;96230.91;4983625;28;20418;-56
2023/03/26 02:36:26;;;;;;;0.90;0.90;;;;;;;10.20;100.00;96275.16;4984863;28;20564;-56
2023/03/26 02:38:54;;;;;;;0.80;0.80;;;;;;;10.44;100.00;96271.75;4984490;28;20477;-57
2023/03/26 02:41:21;;;;;;;0.85;0.85;;;;;;;10.13;100.00;96277.88;4983511;28;20061;-62
2023/03/26 02:43:48;;;;;;;0.80;0.80;;;;;;;9.58;100.00;96234.00;4984587;28;20136;-63
2023/03/26 02:46:14;;;;;;;0.70;0.70;;;;;;;10.06;100.00;96288.06;4984940;28;20046;-56
2023/03/26 02:48:42;;;;;;;0.80;0.80;;;;;;;10.29;100.00;96286.66;4983289;28;20054;-56
2023/03/26 02:51:09;;;;;;;0.80;0.80;;;;;;;10.08;100.00;96236.75;4984674;28;20502;-58
2023/03/26 02:53:38;;;;;;;0.80;0.80;;;;;;;10.44;100.00;96268.97;4984381;28;20085;-57
2023/03/26 02:56:05;;;;;;;0.90;0.90;;;;;;;10.45;100.00;96278.84;4984348;28;20093;-63
2023/03/26 02:58:32;;;;;;;0.80;0.80;;;;;;;10.51;100.00;96266.22;4983090;28;20145;-63
2023/03/26 03:01:01;;;;;;;0.80;0.80;;;;;;;10.40;100.00;96264.59;4984232;28;20058;-63
2023/03/26 03:03:29;;;;;;;0.77;0.77;;;;;;;10.03;100.00;96201.13;4984449;28;20561;-56
2023/03/26 03:05:56;;;;;;;0.88;0.88;;;;;;;10.32;100.00;96272.06;4984402;28;20060;-58
2023/03/26 03:08:26;;;;;;;0.80;0.80;;;;;;;9.19;100.00;96082.50;4984952;28;20062;-57
2023/03/26 03:11:15;;;;;;;0.80;0.80;;;;;;;10.29;100.00;96272.84;4983003;28;20069;-56
2023/03/26 03:13:43;;;;;;;0.70;0.70;;;;;;;10.21;100.00;96262.91;4982869;28;20046;-56
2023/03/26 03:16:10;;;;;;;0.70;0.70;;;;;;;10.04;100.00;96268.28;4984725;28;20113;-56
2023/03/26 03:18:36;;;;;;;0.77;0.77;;;;;;;9.55;100.00;96180.25;4983020;28;20430;-62
2023/03/26 03:21:05;;;;;;;0.80;0.80;;;;;;;9.66;100.00;96197.72;4984096;28;20054;-58
2023/03/26 03:23:31;;;;;;;0.80;0.80;;;;;;;10.10;100.00;96250.19;4983025;28;20051;-63
2023/03/26 03:25:58;;;;;;;0.70;0.70;;;;;;;9.59;100.00;96197.69;4984146;28;20501;-63
2023/03/26 03:28:25;;;;;;;0.80;0.80;;;;;;;9.70;100.00;96220.66;4984541;28;20046;-63
2023/03/26 03:30:52;;;;;;;0.70;0.70;;;;;;;9.96;100.00;96255.59;4987454;28;20081;-58
2023/03/26 03:33:19;;;;;;;0.70;0.70;;;;;;;9.46;100.00;96188.09;4988061;28;20063;-63
2023/03/26 03:35:48;;;;;;;0.80;0.80;;;;;;;9.87;100.00;96257.91;4988008;28;20429;-63
2023/03/26 03:38:18;;;;;;;0.80;0.80;;;;;;;9.90;100.00;96262.66;4988073;28;20517;-63
2023/03/26 03:40:45;;;;;;;0.73;0.73;;;;;;;9.81;100.00;96260.25;4986327;28;20054;-62
2023/03/26 03:43:11;;;;;;;0.70;0.70;;;;;;;9.70;100.00;96237.25;4986735;28;20057;-63
2023/03/26 03:45:38;;;;;;;0.70;0.70;;;;;;;9.80;100.00;96268.94;4987886;28;20050;-63
2023/03/26 03:48:05;;;;;;;0.80;0.80;;;;;;;9.71;100.00;96260.97;4987895;28;20141;-56
2023/03/26 03:50:32;;;;;;;0.70;0.70;;;;;;;9.54;100.00;96256.09;4987444;28;20561;-62
2023/03/26 03:53:02;;;;;;;0.70;0.70;;;;;;;9.72;100.00;96272.81;4986692;28;20108;-56
2023/03/26 03:55:28;;;;;;;0.70;0.70;;;;;;;9.70;100.00;96270.44;4987798;28;20161;-56
2023/03/26 03:57:57;;;;;;;0.80;0.80;;;;;;;9.62;100.00;96246.69;4986517;28;20058;-63
2023/03/26 04:00:23;;;;;;;0.70;0.70;;;;;;;9.81;100.00;96276.84;4987377;28;20461;-57
2023/03/26 04:02:53;;;;;;;0.80;0.80;;;;;;;9.81;100.00;96274.09;4987930;28;20560;-63
2023/03/26 04:05:20;;;;;;;0.80;0.80;;;;;;;9.76;100.00;96284.69;4987371;28;20066;-63
2023/03/26 04:07:47;;;;;;;0.80;0.80;;;;;;;9.74;100.00;96281.50;4987867;28;20042;-57
2023/03/26 04:10:14;;;;;;;0.80;0.80;;;;;;;9.86;100.00;96290.31;4987134;28;20657;-58
2023/03/26 04:12:41;;;;;;;0.70;0.70;;;;;;;9.88;100.00;96281.63;4987993;28;20120;-63
2023/03/26 04:15:08;;;;;;;0.80;0.80;;;;;;;9.87;100.00;96286.38;4986749;28;20053;-63
2023/03/26 04:17:41;;;;;;;0.80;0.80;;;;;;;9.88;100.00;96293.47;4985310;28;20058;-63
2023/03/26 04:20:14;;;;;;;0.80;0.80;;;;;;;9.78;100.00;96294.22;4986224;28;20465;-57
2023/03/26 04:22:42;;;;;;;0.70;0.70;;;;;;;9.74;100.00;96293.38;4986921;28;20057;-59
2023/03/26 04:25:11;;;;;;;0.80;0.80;;;;;;;9.54;100.00;96289.25;4985318;28;20050;-57
2023/03/26 04:27:40;;;;;;;0.70;0.70;;;;;;;9.62;100.00;96288.16;4987002;28;20101;-57
2023/03/26 04:30:11;;;;;;;0.70;0.70;;;;;;;9.58;100.00;96278.25;4986843;28;20108;-64
2023/03/26 04:32:39;;;;;;;0.80;0.80;;;;;;;9.52;100.00;96286.06;4987639;28;20120;-57
2023/03/26 04:35:06;;;;;;;0.80;0.80;;;;;;;9.37;100.00;96270.56;4986825;28;20051;-59
2023/03/26 04:37:39;;;;;;;0.80;0.80;;;;;;;9.43;100.00;96282.84;4986818;28;20050;-63
2023/03/26 04:40:14;;;;;;;0.80;0.80;;;;;;;9.46;100.00;96295.09;4986475;28;20097;-62
2023/03/26 04:42:44;;;;;;;0.80;0.80;;;;;;;9.45;100.00;96297.09;4987194;28;20157;-57
2023/03/26 04:45:21;;;;;;;0.73;0.73;;;;;;;9.54;100.00;96300.31;4986565;28;20061;-57
2023/03/26 04:47:49;;;;;;;0.80;0.80;;;;;;;8.97;100.00;96253.97;4987258;28;20145;-63
2023/03/26 04:50:16;;;;;;;0.70;0.70;;;;;;;9.39;100.00;96315.16;4985180;28;20054;-57
2023/03/26 04:52:42;;;;;;;0.80;0.80;;;;;;;8.98;100.00;96261.06;4987041;28;20046;-60
2023/03/26 04:55:23;;;;;;;0.80;0.80;;;;;;;8.80;100.00;96178.06;4986589;28;20096;-63
2023/03/26 04:57:56;;;;;;;0.70;0.70;;;;;;;9.69;100.00;96324.13;4986231;28;20434;-63
2023/03/26 05:00:23;;;;;;;0.70;0.70;;;;;;;9.32;100.00;96251.56;4986819;28;20062;-56
2023/03/26 05:02:52;;;;;;;0.77;0.77;;;;;;;9.84;100.00;96292.66;4986865;28;20051;-62
2023/03/26 05:05:19;;;;;;;0.80;0.80;;;;;;;10.08;100.00;96325.28;4986505;28;20058;-63
2023/03/26 05:07:46;;;;;;;0.80;0.80;;;;;;;10.27;100.00;96344.41;4986181;28;20058;-57
2023/03/26 05:10:14;;;;;;;0.80;0.80;;;;;;;10.38;100.00;96328.66;4984979;28;20054;-57
2023/03/26 05:12:42;;;;;;;0.70;0.70;;;;;;;10.44;100.00;96327.09;4986652;28;20062;-64
2023/03/26 05:15:10;;;;;;;0.80;0.80;;;;;;;10.51;100.00;96321.59;4986000;28;20057;-56
2023/03/26 05:17:40;;;;;;;0.80;0.80;;;;;;;10.24;100.00;96273.19;4986095;28;20129;-63
2023/03/26 05:20:20;;;;;;;0.90;0.90;;;;;;;10.98;100.00;96350.31;4986249;28;20160;-59
2023/03/26 05:22:50;;;;;;;0.80;0.80;;;;;;;11.14;100.00;96359.09;4986392;28;20058;-63
2023/03/26 05:25:17;;;;;;;0.90;0.90;;;;;;;11.18;100.00;96360.69;4985682;28;20106;-57
2023/03/26 05:27:44;;;;;;;1.00;1.00;;;;;;;11.37;100.00;96370.66;4984300;28;20104;-63
2023/03/26 05:30:16;;;;;;;0.90;0.90;;;;;;;11.41;100.00;96369.47;4985529;28;20110;-57
2023/03/26 05:32:43;;;;;;;0.90;0.90;;;;;;;11.53;78.41;96376.63;4985703;28;20089;-56
2023/03/26 05:35:11;;;;;;;0.93;0.93;;;;;;;11.89;73.58;96333.91;4985911;28;20058;-62
2023/03/26 05:37:37;;;;;;;0.93;0.93;;;;;;;11.59;69.25;96253.00;4985299;28;20144;-61
2023/03/26 05:40:12;;;;;;;0.90;0.90;;;;;;;12.35;70.02;96362.47;4985671;28;20054;-62
2023/03/26 05:42:40;;;;;;;1.02;1.02;;;;;;;12.45;70.89;96378.34;4986001;28;20050;-62
2023/03/26 05:45:09;;;;;;;1.00;1.00;;;;;;;12.58;69.47;96367.59;4986037;28;20441;-62
2023/03/26 05:47:36;;;;;;;1.00;1.00;;;;;;;12.38;69.38;96328.34;4986048;28;20104;-61
2023/03/26 05:50:04;;;;;;;1.10;1.10;;;;;;;12.58;69.67;96360.06;4985646;28;20901;-56
2023/03/26 05:52:31;;;;;;;1.00;1.00;;;;;;;12.42;68.76;96304.13;4984703;28;20054;-57
2023/03/26 05:54:58;;;;;;;1.00;1.00;;;;;;;12.82;66.08;96361.97;4985427;28;20053;-62
2023/03/26 05:57:27;;;;;;;1.00;1.00;;;;;;;12.50;66.32;96322.38;4983862;28;20144;-59
2023/03/26 05:59:55;;;;;;;0.93;0.93;;;;;;;12.96;65.68;96381.38;4984885;28;20303;-61
2023/03/26 06:02:22;;;;;;;1.00;1.00;;;;;;;12.91;66.50;96359.59;4985506;28;20093;-62
2023/03/26 06:04:49;;;;;;;1.10;1.10;;;;;;;13.05;64.53;96340.09;4983632;28;20088;-61
2023/03/26 06:07:17;;;;;;;1.00;1.00;;;;;;;13.18;63.66;96346.78;4983731;28;20134;-56
2023/03/26 06:09:44;;;;;;;0.90;0.90;;;;;;;13.30;55.58;96334.41;4984958;28;20077;-56
2023/03/26 06:12:11;;;;;;;1.00;1.00;;;;;;;13.53;55.76;96337.47;4985159;28;20082;-61
2023/03/26 06:14:38;;;;;;;1.10;1.10;;;;;;;13.85;57.49;96359.53;4984859;28;20062;-62
2023/03/26 06:17:04;;;;;;;1.10;1.10;;;;;;;13.72;55.75;96369.56;4985443;28;20082;-61
2023/03/26 06:19:31;;;;;;;1.13;1.13;;;;;;;13.70;58.32;96340.13;4985129;28;20046;-56
2023/03/26 06:21:58;;;;;;;1.15;1.15;;;;;;;13.44;52.08;96290.63;4984641;28;20203;-61
2023/03/26 06:24:24;;;;;;;1.30;1.30;;;;;;;14.17;53.21;96371.22;4984759;28;20057;-62
2023/03/26 06:26:51;;;;;;;1.10;1.10;;;;;;;14.03;50.52;96382.47;4985007;28;20077;-61
2023/03/26 06:29:19;;;;;;;1.05;1.05;;;;;;;13.99;51.56;96373.38;4984861;28;20187;-56
2023/03/26 06:31:45;;;;;;;1.30;1.30;;;;;;;13.67;51.72;96327.03;4983415;28;20050;-56
2023/03/26 06:34:12;;;;;;;1.10;1.10;;;;;;;14.18;52.21;96383.97;4984355;28;20613;-56
2023/03/26 06:36:39;;;;;;;1.20;1.20;;;;;;;14.36;52.69;96365.13;4985161;28;20046;-57
2023/03/26 06:39:05;;;;;;;1.20;1.20;;;;;;;14.22;55.03;96306.72;4983364;28;20077;-61
2023/03/26 06:41:34;;;;;;;1.17;1.17;;;;;;;14.52;50.96;96370.97;4984900;28;20060;-60
2023/03/26 06:44:01;;;;;;;1.30;1.30;;;;;;;14.81;52.54;96389.00;4987318;28;20157;-56
2023/03/26 06:46:28;;;;;;;1.30;1.30;;;;;;;14.75;53.16;96357.19;5035791;28;20095;-55
2023/03/26 06:48:54;;;;;;;1.20;1.20;;;;;;;14.82;53.16;96343.97;5018839;28;20588;-59
2023/03/26 06:51:21;;;;;;;1.20;1.20;;;;;;;15.23;52.84;96396.91;5004346;28;20472;-57
2023/03/26 06:53:48;;;;;;;1.35;1.35;;;;;;;15.23;47.37;96408.06;5003929;28;20085;-57
2023/03/26 06:56:14;;;;;;;1.30;1.30;;;;;;;15.33;48.26;96401.59;4992444;28;20141;-57
2023/03/26 06:58:41;;;;;;;1.35;1.35;;;;;;;15.07;48.56;96363.22;4984315;28;20053;-56
2023/03/26 07:01:08;;;;;;;1.20;1.20;;;;;;;14.80;45.36;96353.94;4984377;28;20050;-58
2023/03/26 07:03:34;;;;;;;1.30;1.30;;;;;;;15.01;44.06;96371.25;4982937;28;20593;-61
2023/03/26 07:06:01;;;;;;;1.30;1.30;;;;;;;14.89;47.47;96341.09;4987467;28;20057;-61
2023/03/26 07:08:29;;;;;;;1.40;1.40;;;;;;;14.99;46.66;96370.06;4988070;28;20060;-62
2023/03/26 07:10:56;;;;;;;1.33;1.33;;;;;;;15.29;46.77;96408.38;4988127;28;20046;-58
2023/03/26 07:13:23;;;;;;;1.30;1.30;;;;;;;15.35;46.29;96401.94;4988618;28;20120;-61
2023/03/26 07:15:50;;;;;;;1.40;1.40;;;;;;;15.37;45.89;96413.47;4988216;28;20534;-57
2023/03/26 07:18:16;;;;;;;1.40;1.40;;;;;;;15.53;45.79;96402.56;4987086;28;20077;-56
2023/03/26 07:20:44;;;;;;;1.50;1.50;;;;;;;15.54;46.35;96404.13;4987736;28;20133;-59
2023/03/26 07:23:12;;;;;;;1.40;1.40;;;;;;;15.59;48.92;96422.41;4988309;28;20073;-58
2023/03/26 07:25:39;;;;;;;1.30;1.30;;;;;;;15.70;49.33;96421.06;4985544;28;20108;-59
2023/03/26 07:28:24;;;;;;;1.33;1.33;;;;;;;15.76;50.46;96416.59;4988516;28;20550;-60
2023/03/26 07:31:02;;;;;;;1.42;1.42;;;;;;;15.85;47.12;96425.28;4987623;28;20050;-55
2023/03/26 07:34:08;;;;;;;1.30;1.30;;;;;;;15.87;44.46;96422.84;4986563;28;20510;-60
2023/03/26 07:36:55;;;;;;;1.38;1.38;;;;;;;15.79;44.46;96415.75;4988131;28;20061;-59
2023/03/26 07:39:43;;;;;;;1.60;1.60;;;;;;;15.75;46.32;96420.63;4987511;28;20176;-55
2023/03/26 07:42:12;;;;;;;1.50;1.50;;;;;;;15.88;47.78;96430.03;4988328;28;20057;-59
2023/03/26 07:44:48;;;;;;;1.60;1.60;;;;;;;16.03;46.75;96420.22;4987336;28;20623;-55
2023/03/26 07:47:24;;;;;;;1.35;1.35;;;;;;;15.80;45.71;96422.94;4988078;28;20046;-58
2023/03/26 07:49:53;;;;;;;1.50;1.50;;;;;;;15.53;47.52;96357.91;4967931;28;20050;-59
2023/03/26 07:52:20;;;;;;;1.45;1.45;;;;;;;16.06;46.75;96424.19;4968422;28;20054;-59
2023/03/26 07:54:47;;;;;;;1.52;1.52;;;;;;;16.08;46.26;96397.41;4967891;28;20094;-56
2023/03/26 07:57:19;;;;;;;1.33;1.33;;;;;;;16.19;43.96;96412.00;4968340;28;20125;-60
2023/03/26 07:59:57;;;;;;;1.50;1.50;;;;;;;15.84;44.40;96384.56;4966464;28;20664;-56
2023/03/26 08:02:35;;;;;;;1.55;1.55;;;;;;;16.30;45.23;96412.63;4968204;28;20058;-60
2023/03/26 08:05:31;;;;;;;1.60;1.60;;;;;;;15.78;44.78;96335.19;4972985;28;20065;-60
2023/03/26 08:08:30;;;;;;;1.50;1.50;;;;;;;16.33;43.09;96411.78;4987538;28;20073;-57
2023/03/26 08:11:39;;;;;;;1.48;1.48;;;;;;;16.17;43.26;96386.47;4987104;28;20506;-58
2023/03/26 08:14:36;;;;;;;1.60;1.60;;;;;;;16.38;42.72;96397.34;4985200;28;20070;-58
2023/03/26 08:17:13;;;;;;;1.50;1.50;;;;;;;16.03;41.86;96369.94;4987319;28;20582;-61
2023/03/26 08:19:53;;;;;;;1.52;1.52;;;;;;;16.18;43.04;96373.31;4987115;28;20054;-59
2023/03/26 08:22:26;;;;;;;1.60;1.60;;;;;;;16.44;41.36;96395.66;4987516;28;20126;-55
2023/03/26 08:25:17;;;;;;;1.63;1.63;;;;;;;16.48;40.74;96402.00;4986695;28;20086;-58
2023/03/26 08:28:00;;;;;;;1.58;1.58;;;;;;;16.41;39.84;96404.88;4987145;28;20054;-59
2023/03/26 08:30:27;;;;;;;1.50;1.50;;;;;;;16.49;38.69;96397.19;4987096;28;20108;-59
2023/03/26 08:33:01;;;;;;;1.40;1.40;;;;;;;16.72;38.16;96404.78;4987039;28;20058;-56
2023/03/26 08:35:27;;;;;;;;;;;;;;;16.94;38.36;96394.81;4987154;28;20061;-58
2023/03/26 08:37:54;;;;;;;1.60;1.60;;;;;;;16.79;38.32;96399.88;4987386;28;19976;-59
2023/03/26 08:40:39;;;;;;;1.60;1.60;;;;;;;17.06;37.86;96402.56;5001210;28;20205;-60
2023/03/26 08:43:21;;;;;;;1.63;1.63;;;;;;;17.29;36.90;96400.53;5006739;28;20058;-59
2023/03/26 08:45:56;;;;;;;1.85;1.85;;;;;;;17.27;33.04;96390.97;5004298;28;20085;-56
2023/03/26 08:49:00;;;;;;;1.60;1.60;;;;;;;17.30;37.70;96390.13;5006418;28;20417;-55
2023/03/26 08:51:42;;;;;;;1.63;1.63;;;;;;;17.46;38.08;96387.44;5004859;28;20057;-55
2023/03/26 08:54:47;;;;;;;1.90;1.90;;;;;;;17.64;36.94;96393.47;5006022;28;20547;-59
2023/03/26 08:57:25;;;;;;;1.58;1.58;;;;;;;17.54;37.45;96394.47;5006228;28;20087;-56
2023/03/26 09:00:32;;;;;;;1.60;1.60;;;;;;;17.45;38.66;96394.25;5005966;28;20564;-57
2023/03/26 09:03:24;;;;;;;1.45;1.45;;;;;;;17.77;35.20;96383.97;5004452;28;20401;-57
2023/03/26 09:06:20;;;;;;;1.55;1.55;;;;;;;17.85;35.49;96387.38;5005622;28;20077;-57
2023/03/26 09:09:26;;;;;;;1.60;1.60;;;;;;;17.98;34.26;96386.31;4997678;28;20046;-55
2023/03/26 09:12:27;;;;;;;1.90;1.90;;;;;;;17.73;32.17;96386.06;5005611;28;20287;-56
2023/03/26 09:15:02;;;;;;;1.60;1.60;;;;;;;17.62;32.75;96381.91;5005721;28;20050;-57
2023/03/26 09:17:46;;;;;;;1.70;1.70;;;;;;;17.81;35.25;96389.50;5005693;28;20054;-55
2023/03/26 09:20:37;;;;;;;1.65;1.65;;;;;;;17.84;34.53;96380.22;5005583;28;20058;-59
2023/03/26 09:23:35;;;;;;;1.80;1.80;;;;;;;18.03;34.17;96385.78;5005662;28;20140;-57
2023/03/26 09:26:17;;;;;;;1.75;1.75;;;;;;;18.06;33.74;96392.53;5004900;28;20073;-54
2023/03/26 09:29:11;;;;;;;1.70;1.70;;;;;;;18.00;33.56;96394.28;5005007;28;20057;-55
2023/03/26 09:31:41;;;;;;;1.67;1.67;;;;;;;17.97;33.68;96395.91;5005461;28;20116;-59
2023/03/26 09:34:17;;;;;;;1.70;1.70;;;;;;;17.94;32.99;96387.59;5005610;28;20052;-60
2023/03/26 09:36:56;;;;;;;1.70;1.70;;;;;;;17.87;32.72;96401.75;5005280;28;20050;-59
2023/03/26 09:39:35;;;;;;;1.67;1.67;;;;;;;16.70;34.24;96222.63;5005389;28;20054;-59
2023/03/26 09:42:22;;;;;;;1.85;1.85;;;;;;;17.77;33.15;96385.97;5005132;28;20097;-59
2023/03/26 09:45:03;;;;;;;2.10;2.10;;;;;;;17.72;33.08;96389.31;5005345;28;20623;-60
2023/03/26 09:47:30;;;;;;;1.60;1.60;;;;;;;17.61;33.70;96378.28;5003968;28;20054;-56
2023/03/26 09:50:21;;;;;;;1.80;1.80;;;;;;;17.90;34.74;96378.47;5004164;28;20050;-60
2023/03/26 09:53:03;;;;;;;1.70;1.70;;;;;;;17.99;33.60;96403.88;5005122;28;20103;-60
2023/03/26 09:55:48;;;;;;;1.73;1.73;;;;;;;17.94;34.48;96390.41;5005174;28;20046;-56
2023/03/26 09:58:41;;;;;;;1.60;1.60;;;;;;;17.91;34.63;96391.25;5004428;28;20058;-60
2023/03/26 10:01:09;;;;;;;1.75;1.75;;;;;;;18.01;34.93;96390.25;5003504;28;20106;-59
2023/03/26 10:03:42;;;;;;;1.80;1.80;;;;;;;18.08;35.30;96368.44;5003272;28;20509;-59
2023/03/26 10:06:36;;;;;;;1.70;1.70;;;;;;;17.98;34.87;96333.06;5004944;28;20092;-56
2023/03/26 10:09:37;;;;;;;1.58;1.58;;;;;;;18.06;34.51;96386.94;5003360;28;20111;-60
2023/03/26 10:12:13;;;;;;;1.73;1.73;;;;;;;18.05;33.19;96371.34;5003283;28;20049;-59
2023/03/26 10:15:10;;;;;;;1.67;1.67;;;;;;;18.24;34.46;96364.84;5004642;28;20141;-60
2023/03/26 10:17:55;;;;;;;1.60;1.60;;;;;;;18.44;35.61;96374.03;5003142;28;20131;-58
2023/03/26 10:20:36;;;;;;;1.83;1.83;;;;;;;18.52;35.55;96361.41;5003211;28;20056;-60
2023/03/26 10:23:07;;;;;;;1.70;1.70;;;;;;;18.27;34.70;96375.22;5004952;28;20061;-61
2023/03/26 10:25:39;;;;;;;1.80;1.80;;;;;;;18.10;33.98;96368.00;5004383;28;20428;-56
2023/03/26 10:28:12;;;;;;;1.83;1.83;;;;;;;18.24;34.71;96359.25;5005019;28;20053;-60
2023/03/26 10:31:06;;;;;;;1.90;1.90;;;;;;;18.23;34.78;96368.91;5004643;28;20560;-60
2023/03/26 10:33:55;;;;;;;1.90;1.90;;;;;;;18.05;33.22;96358.09;5003810;28;20062;-55
2023/03/26 10:36:40;;;;;;;1.70;1.70;;;;;;;18.17;34.77;96339.81;5004214;28;20127;-55
2023/03/26 10:39:19;;;;;;;1.70;1.70;;;;;;;18.31;33.86;96325.44;5003779;28;20116;-58
2023/03/26 10:42:27;;;;;;;1.55;1.55;;;;;;;18.56;33.07;96341.69;4995880;28;20061;-56
2023/03/26 10:45:12;;;;;;;1.65;1.65;;;;;;;18.50;33.15;96338.63;5004581;28;20057;-60
2023/03/26 10:47:38;;;;;;;1.80;1.80;;;;;;;18.27;33.09;96327.56;5004329;28;20054;-60
2023/03/26 10:50:14;;;;;;;1.60;1.60;;;;;;;18.31;32.85;96319.84;5004329;28;20050;-60
2023/03/26 10:53:02;;;;;;;1.70;1.70;;;;;;;17.95;32.66;96277.88;5004303;28;20058;-56
2023/03/26 10:55:45;;;;;;;1.52;1.52;;;;;;;18.15;33.20;96300.22;5003816;28;20085;-56
2023/03/26 10:58:26;;;;;;;1.60;1.60;;;;;;;18.31;33.51;96319.84;5003825;28;20054;-55
2023/03/26 11:01:03;;;;;;;1.70;1.70;;;;;;;18.56;33.62;96314.41;5002362;28;20093;-56
2023/03/26 11:03:42;;;;;;;1.55;1.55;;;;;;;18.74;32.69;96331.59;5003781;28;20046;-60
2023/03/26 11:06:37;;;;;;;1.70;1.70;;;;;;;18.55;31.28;96312.84;5004009;28;20084;-56
2023/03/26 11:09:29;;;;;;;1.60;1.60;;;;;;;18.64;30.81;96304.59;5003831;28;20065;-60
2023/03/26 11:12:21;;;;;;;1.58;1.58;;;;;;;18.62;30.77;96335.09;5004569;28;20054;-60
2023/03/26 11:15:12;;;;;;;1.70;1.70;;;;;;;18.61;31.00;96322.31;5004056;28;20057;-56
2023/03/26 11:17:45;;;;;;;1.80;1.80;;;;;;;18.96;31.87;96304.53;5004050;28;20564;-61
2023/03/26 11:20:42;;;;;;;1.67;1.67;;;;;;;19.20;32.04;96302.25;5003969;28;20061;-57
2023/03/26 11:23:36;;;;;;;1.80;1.80;;;;;;;19.06;32.59;96303.44;5004441;28;20062;-57
2023/03/26 11:26:16;;;;;;;1.60;1.60;;;;;;;19.32;30.42;96305.13;5002081;28;20116;-61
2023/03/26 11:29:00;;;;;;;1.60;1.60;;;;;;;19.39;30.37;96318.94;5003863;28;20108;-60
2023/03/26 11:32:01;;;;;;;1.90;1.90;;;;;;;19.32;28.96;96307.94;5004338;28;20069;-58
2023/03/26 11:34:46;;;;;;;1.90;1.90;;;;;;;19.37;30.95;96295.38;5003802;28;20362;-56
2023/03/26 11:37:28;;;;;;;1.90;1.90;;;;;;;19.41;29.87;96315.72;5002409;28;20054;-55
2023/03/26 11:39:57;;;;;;;1.90;1.90;;;;;;;19.32;30.79;96319.16;5003663;28;20359;-61
2023/03/26 11:42:24;;;;;;;1.77;1.77;;;;;;;18.81;29.03;96264.03;5003960;28;20140;-57
2023/03/26 11:45:15;;;;;;;1.70;1.70;;;;;;;19.03;30.38;96293.09;5003746;28;20058;-60
2023/03/26 11:47:54;;;;;;;1.85;1.85;;;;;;;18.95;29.75;96277.66;5003402;28;20211;-60
2023/03/26 11:50:26;;;;;;;1.58;1.58;;;;;;;19.21;30.03;96301.00;5004152;28;20598;-59
2023/03/26 11:53:02;;;;;;;1.60;1.60;;;;;;;19.14;29.43;96290.78;5006177;28;20058;-57
2023/03/26 11:55:30;;;;;;;1.70;1.70;;;;;;;18.85;30.74;96259.13;5007335;28;20425;-60
2023/03/26 11:57:59;;;;;;;1.95;1.95;;;;;;;18.76;30.36;96242.13;5007498;28;20161;-60
2023/03/26 12:00:27;;;;;;;1.70;1.70;;;;;;;19.16;29.98;96291.13;5005504;28;20108;-55
2023/03/26 12:02:59;;;;;;;1.70;1.70;;;;;;;19.15;30.88;96295.16;5007557;28;20891;-56
2023/03/26 12:05:32;;;;;;;1.90;1.90;;;;;;;18.95;29.92;96291.72;5006733;28;20054;-57